sensor_id;sensor_type;location;lat;lon;timestamp;P1;durP1;ratioP1;P2;durP2;ratioP2
24173;SDS011;12324;48.146;11.502;2023-05-17T00:01:55;0.50;;;0.50;;
24173;SDS011;12324;48.146;11.502;2023-05-17T00:04:22;0.50;;;0.50;;
24173;SDS011;12324;48.146;11.502;2023-05-17T00:06:49;0.60;;;0.60;;
24173;SDS011;12324;48.146;11.502;2023-05-17T00:09:16;0.65;;;0.65;;
24173;SDS011;12324;48.146;11.502;2023-05-17T00:11:44;0.50;;;0.50;;
24173;SDS011;12324;48.146;11.502;2023-05-17T00:14:11;0.63;;;0.63;;
24173;SDS011;12324;48.146;11.502;2023-05-17T00:16:38;0.70;;;0.70;;
24173;SDS011;12324;48.146;11.502;2023-05-17T00:19:05;0.80;;;0.80;;
24173;SDS011;12324;48.146;11.502;2023-05-17T00:21:34;0.50;;;0.50;;
24173;SDS011;12324;48.146;11.502;2023-05-17T00:24:01;0.50;;;0.50;;
24173;SDS011;12324;48.146;11.502;2023-05-17T00:26:28;1.00;;;1.00;;
24173;SDS011;12324;48.146;11.502;2023-05-17T00:28:55;0.70;;;0.70;;
24173;SDS011;12324;48.146;11.502;2023-05-17T00:31:23;0.50;;;0.50;;
24173;SDS011;12324;48.146;11.502;2023-05-17T00:33:50;0.60;;;0.60;;
24173;SDS011;12324;48.146;11.502;2023-05-17T00:36:17;0.60;;;0.60;;
24173;SDS011;12324;48.146;11.502;2023-05-17T00:38:44;0.88;;;0.75;;
24173;SDS011;12324;48.146;11.502;2023-05-17T00:41:11;0.77;;;0.77;;
24173;SDS011;12324;48.146;11.502;2023-05-17T00:43:38;0.75;;;0.75;;
24173;SDS011;12324;48.146;11.502;2023-05-17T00:46:05;0.50;;;0.50;;
24173;SDS011;12324;48.146;11.502;2023-05-17T00:48:32;0.80;;;0.80;;
24173;SDS011;12324;48.146;11.502;2023-05-17T00:51:00;0.70;;;0.70;;
24173;SDS011;12324;48.146;11.502;2023-05-17T00:53:27;5.78;;;2.25;;
24173;SDS011;12324;48.146;11.502;2023-05-17T00:55:56;1.15;;;1.13;;
24173;SDS011;12324;48.146;11.502;2023-05-17T00:58:23;0.75;;;0.68;;
24173;SDS011;12324;48.146;11.502;2023-05-17T01:00:50;0.50;;;0.50;;
24173;SDS011;12324;48.146;11.502;2023-05-17T01:03:18;0.60;;;0.60;;
24173;SDS011;12324;48.146;11.502;2023-05-17T01:05:48;0.75;;;0.75;;
24173;SDS011;12324;48.146;11.502;2023-05-17T01:08:15;1.17;;;1.02;;
24173;SDS011;12324;48.146;11.502;2023-05-17T01:10:45;1.10;;;1.08;;
24173;SDS011;12324;48.146;11.502;2023-05-17T01:13:17;1.42;;;1.33;;
24173;SDS011;12324;48.146;11.502;2023-05-17T01:15:47;0.90;;;0.90;;
24173;SDS011;12324;48.146;11.502;2023-05-17T01:18:32;0.60;;;0.60;;
24173;SDS011;12324;48.146;11.502;2023-05-17T01:21:02;1.25;;;1.15;;
24173;SDS011;12324;48.146;11.502;2023-05-17T01:26:38;0.77;;;0.77;;
24173;SDS011;12324;48.146;11.502;2023-05-17T01:29:07;0.65;;;0.65;;
24173;SDS011;12324;48.146;11.502;2023-05-17T01:31:35;0.50;;;0.50;;
24173;SDS011;12324;48.146;11.502;2023-05-17T01:34:08;0.95;;;0.95;;
24173;SDS011;12324;48.146;11.502;2023-05-17T01:36:36;0.60;;;0.60;;
24173;SDS011;12324;48.146;11.502;2023-05-17T01:39:03;0.90;;;0.90;;
24173;SDS011;12324;48.146;11.502;2023-05-17T01:41:32;0.63;;;0.63;;
24173;SDS011;12324;48.146;11.502;2023-05-17T01:44:12;0.68;;;0.68;;
24173;SDS011;12324;48.146;11.502;2023-05-17T01:46:42;0.88;;;0.88;;
24173;SDS011;12324;48.146;11.502;2023-05-17T01:49:11;0.57;;;0.57;;
24173;SDS011;12324;48.146;11.502;2023-05-17T01:51:46;0.90;;;0.90;;
24173;SDS011;12324;48.146;11.502;2023-05-17T01:54:14;0.50;;;0.50;;
24173;SDS011;12324;48.146;11.502;2023-05-17T01:56:47;1.23;;;1.13;;
24173;SDS011;12324;48.146;11.502;2023-05-17T01:59:14;2.25;;;2.05;;
24173;SDS011;12324;48.146;11.502;2023-05-17T02:01:43;0.70;;;0.70;;
24173;SDS011;12324;48.146;11.502;2023-05-17T02:04:10;0.88;;;0.88;;
24173;SDS011;12324;48.146;11.502;2023-05-17T02:06:37;0.60;;;0.60;;
24173;SDS011;12324;48.146;11.502;2023-05-17T02:09:05;0.63;;;0.63;;
24173;SDS011;12324;48.146;11.502;2023-05-17T02:11:32;0.52;;;0.52;;
24173;SDS011;12324;48.146;11.502;2023-05-17T02:13:59;0.98;;;0.98;;
24173;SDS011;12324;48.146;11.502;2023-05-17T02:16:26;0.77;;;0.77;;
24173;SDS011;12324;48.146;11.502;2023-05-17T02:18:53;0.60;;;0.60;;
24173;SDS011;12324;48.146;11.502;2023-05-17T02:21:19;0.90;;;0.90;;
24173;SDS011;12324;48.146;11.502;2023-05-17T02:23:46;0.63;;;0.63;;
24173;SDS011;12324;48.146;11.502;2023-05-17T02:26:13;0.50;;;0.50;;
24173;SDS011;12324;48.146;11.502;2023-05-17T02:28:39;0.77;;;0.77;;
24173;SDS011;12324;48.146;11.502;2023-05-17T02:31:06;0.80;;;0.80;;
24173;SDS011;12324;48.146;11.502;2023-05-17T02:33:34;0.70;;;0.70;;
24173;SDS011;12324;48.146;11.502;2023-05-17T02:36:01;0.60;;;0.60;;
24173;SDS011;12324;48.146;11.502;2023-05-17T02:38:28;6.82;;;3.20;;
24173;SDS011;12324;48.146;11.502;2023-05-17T02:40:54;0.50;;;0.50;;
24173;SDS011;12324;48.146;11.502;2023-05-17T02:43:21;0.70;;;0.70;;
24173;SDS011;12324;48.146;11.502;2023-05-17T02:45:48;0.60;;;0.60;;
24173;SDS011;12324;48.146;11.502;2023-05-17T02:48:15;0.60;;;0.60;;
24173;SDS011;12324;48.146;11.502;2023-05-17T02:50:42;22.75;;;1.73;;
24173;SDS011;12324;48.146;11.502;2023-05-17T02:53:10;0.60;;;0.60;;
24173;SDS011;12324;48.146;11.502;2023-05-17T02:55:37;1.33;;;1.23;;
24173;SDS011;12324;48.146;11.502;2023-05-17T02:58:04;0.60;;;0.60;;
24173;SDS011;12324;48.146;11.502;2023-05-17T03:00:31;0.50;;;0.50;;
24173;SDS011;12324;48.146;11.502;2023-05-17T03:02:58;0.50;;;0.50;;
24173;SDS011;12324;48.146;11.502;2023-05-17T03:05:26;1.95;;;1.13;;
24173;SDS011;12324;48.146;11.502;2023-05-17T03:07:54;0.60;;;0.60;;
24173;SDS011;12324;48.146;11.502;2023-05-17T03:10:21;0.50;;;0.50;;
24173;SDS011;12324;48.146;11.502;2023-05-17T03:12:48;0.52;;;0.52;;
24173;SDS011;12324;48.146;11.502;2023-05-17T03:15:16;0.50;;;0.50;;
24173;SDS011;12324;48.146;11.502;2023-05-17T03:17:43;14.65;;;2.63;;
24173;SDS011;12324;48.146;11.502;2023-05-17T03:20:10;0.60;;;0.60;;
24173;SDS011;12324;48.146;11.502;2023-05-17T03:22:38;0.95;;;0.95;;
24173;SDS011;12324;48.146;11.502;2023-05-17T03:25:05;0.60;;;0.60;;
24173;SDS011;12324;48.146;11.502;2023-05-17T03:27:32;0.60;;;0.60;;
24173;SDS011;12324;48.146;11.502;2023-05-17T03:29:59;0.65;;;0.65;;
24173;SDS011;12324;48.146;11.502;2023-05-17T03:32:27;0.57;;;0.57;;
24173;SDS011;12324;48.146;11.502;2023-05-17T03:34:54;0.75;;;0.75;;
24173;SDS011;12324;48.146;11.502;2023-05-17T03:37:21;0.65;;;0.65;;
24173;SDS011;12324;48.146;11.502;2023-05-17T03:39:48;0.85;;;0.85;;
24173;SDS011;12324;48.146;11.502;2023-05-17T03:42:16;3.03;;;2.35;;
24173;SDS011;12324;48.146;11.502;2023-05-17T03:44:43;0.50;;;0.50;;
24173;SDS011;12324;48.146;11.502;2023-05-17T03:47:10;0.50;;;0.50;;
24173;SDS011;12324;48.146;11.502;2023-05-17T03:49:37;0.90;;;0.82;;
24173;SDS011;12324;48.146;11.502;2023-05-17T03:52:04;0.60;;;0.60;;
24173;SDS011;12324;48.146;11.502;2023-05-17T03:54:31;0.70;;;0.70;;
24173;SDS011;12324;48.146;11.502;2023-05-17T03:56:58;0.60;;;0.60;;
24173;SDS011;12324;48.146;11.502;2023-05-17T03:59:26;0.50;;;0.50;;
24173;SDS011;12324;48.146;11.502;2023-05-17T04:01:53;1.00;;;1.00;;
24173;SDS011;12324;48.146;11.502;2023-05-17T04:04:20;0.60;;;0.60;;
24173;SDS011;12324;48.146;11.502;2023-05-17T04:06:47;0.60;;;0.60;;
24173;SDS011;12324;48.146;11.502;2023-05-17T04:09:14;2.55;;;2.28;;
24173;SDS011;12324;48.146;11.502;2023-05-17T04:11:41;0.50;;;0.50;;
24173;SDS011;12324;48.146;11.502;2023-05-17T04:14:08;0.65;;;0.65;;
24173;SDS011;12324;48.146;11.502;2023-05-17T04:16:36;0.60;;;0.60;;
24173;SDS011;12324;48.146;11.502;2023-05-17T04:19:03;0.50;;;0.50;;
24173;SDS011;12324;48.146;11.502;2023-05-17T04:21:30;2.03;;;1.85;;
24173;SDS011;12324;48.146;11.502;2023-05-17T04:23:57;0.63;;;0.63;;
24173;SDS011;12324;48.146;11.502;2023-05-17T04:26:25;0.52;;;0.52;;
24173;SDS011;12324;48.146;11.502;2023-05-17T04:28:52;0.57;;;0.57;;
24173;SDS011;12324;48.146;11.502;2023-05-17T04:31:20;0.85;;;0.75;;
24173;SDS011;12324;48.146;11.502;2023-05-17T04:33:47;1.35;;;1.25;;
24173;SDS011;12324;48.146;11.502;2023-05-17T04:36:14;0.60;;;0.60;;
24173;SDS011;12324;48.146;11.502;2023-05-17T04:38:42;0.60;;;0.60;;
24173;SDS011;12324;48.146;11.502;2023-05-17T04:41:09;0.50;;;0.50;;
24173;SDS011;12324;48.146;11.502;2023-05-17T04:43:36;0.50;;;0.50;;
24173;SDS011;12324;48.146;11.502;2023-05-17T04:46:04;0.75;;;0.75;;
24173;SDS011;12324;48.146;11.502;2023-05-17T04:48:32;1.00;;;0.90;;
24173;SDS011;12324;48.146;11.502;2023-05-17T04:51:02;0.80;;;0.80;;
24173;SDS011;12324;48.146;11.502;2023-05-17T04:53:30;0.73;;;0.73;;
24173;SDS011;12324;48.146;11.502;2023-05-17T04:55:57;0.50;;;0.50;;
24173;SDS011;12324;48.146;11.502;2023-05-17T04:58:24;0.50;;;0.50;;
24173;SDS011;12324;48.146;11.502;2023-05-17T05:00:51;1.25;;;1.15;;
24173;SDS011;12324;48.146;11.502;2023-05-17T05:03:18;0.60;;;0.60;;
24173;SDS011;12324;48.146;11.502;2023-05-17T05:05:46;0.98;;;0.98;;
24173;SDS011;12324;48.146;11.502;2023-05-17T05:08:13;0.60;;;0.60;;
24173;SDS011;12324;48.146;11.502;2023-05-17T05:10:41;0.60;;;0.60;;
24173;SDS011;12324;48.146;11.502;2023-05-17T05:13:08;0.65;;;0.65;;
24173;SDS011;12324;48.146;11.502;2023-05-17T05:15:35;0.50;;;0.50;;
24173;SDS011;12324;48.146;11.502;2023-05-17T05:18:02;0.60;;;0.60;;
24173;SDS011;12324;48.146;11.502;2023-05-17T05:20:30;0.50;;;0.50;;
24173;SDS011;12324;48.146;11.502;2023-05-17T05:22:57;0.50;;;0.50;;
24173;SDS011;12324;48.146;11.502;2023-05-17T05:25:26;1.23;;;0.90;;
24173;SDS011;12324;48.146;11.502;2023-05-17T05:27:53;0.73;;;0.70;;
24173;SDS011;12324;48.146;11.502;2023-05-17T05:30:21;0.65;;;0.65;;
24173;SDS011;12324;48.146;11.502;2023-05-17T05:32:48;1.48;;;1.20;;
24173;SDS011;12324;48.146;11.502;2023-05-17T05:35:16;0.50;;;0.50;;
24173;SDS011;12324;48.146;11.502;2023-05-17T05:37:43;3.55;;;1.02;;
24173;SDS011;12324;48.146;11.502;2023-05-17T05:40:11;1.27;;;1.17;;
24173;SDS011;12324;48.146;11.502;2023-05-17T05:42:38;0.60;;;0.60;;
24173;SDS011;12324;48.146;11.502;2023-05-17T05:45:05;0.60;;;0.60;;
24173;SDS011;12324;48.146;11.502;2023-05-17T05:47:33;1.40;;;1.27;;
24173;SDS011;12324;48.146;11.502;2023-05-17T05:50:00;2.35;;;1.70;;
24173;SDS011;12324;48.146;11.502;2023-05-17T05:52:27;0.60;;;0.60;;
24173;SDS011;12324;48.146;11.502;2023-05-17T05:54:54;0.57;;;0.57;;
24173;SDS011;12324;48.146;11.502;2023-05-17T05:57:22;0.50;;;0.50;;
24173;SDS011;12324;48.146;11.502;2023-05-17T05:59:49;1.45;;;1.30;;
24173;SDS011;12324;48.146;11.502;2023-05-17T06:02:16;0.50;;;0.50;;
24173;SDS011;12324;48.146;11.502;2023-05-17T06:04:47;0.50;;;0.50;;
24173;SDS011;12324;48.146;11.502;2023-05-17T06:07:14;0.68;;;0.68;;
24173;SDS011;12324;48.146;11.502;2023-05-17T06:09:41;0.60;;;0.60;;
24173;SDS011;12324;48.146;11.502;2023-05-17T06:12:08;0.50;;;0.50;;
24173;SDS011;12324;48.146;11.502;2023-05-17T06:14:36;0.55;;;0.55;;
24173;SDS011;12324;48.146;11.502;2023-05-17T06:17:03;0.50;;;0.50;;
24173;SDS011;12324;48.146;11.502;2023-05-17T06:19:30;9.93;;;1.50;;
24173;SDS011;12324;48.146;11.502;2023-05-17T06:21:58;1.55;;;1.45;;
24173;SDS011;12324;48.146;11.502;2023-05-17T06:24:25;0.77;;;0.77;;
24173;SDS011;12324;48.146;11.502;2023-05-17T06:26:52;0.50;;;0.50;;
24173;SDS011;12324;48.146;11.502;2023-05-17T06:29:19;0.50;;;0.50;;
24173;SDS011;12324;48.146;11.502;2023-05-17T06:31:46;0.60;;;0.60;;
24173;SDS011;12324;48.146;11.502;2023-05-17T06:34:14;4.45;;;2.25;;
24173;SDS011;12324;48.146;11.502;2023-05-17T06:36:41;0.50;;;0.50;;
24173;SDS011;12324;48.146;11.502;2023-05-17T06:39:08;0.73;;;0.73;;
24173;SDS011;12324;48.146;11.502;2023-05-17T06:41:36;2.97;;;1.42;;
24173;SDS011;12324;48.146;11.502;2023-05-17T06:44:03;0.95;;;0.90;;
24173;SDS011;12324;48.146;11.502;2023-05-17T06:46:30;0.55;;;0.55;;
24173;SDS011;12324;48.146;11.502;2023-05-17T06:48:58;1.45;;;1.35;;
24173;SDS011;12324;48.146;11.502;2023-05-17T06:51:25;0.63;;;0.63;;
24173;SDS011;12324;48.146;11.502;2023-05-17T06:53:54;0.70;;;0.70;;
24173;SDS011;12324;48.146;11.502;2023-05-17T06:56:22;0.50;;;0.50;;
24173;SDS011;12324;48.146;11.502;2023-05-17T06:58:49;0.50;;;0.50;;
24173;SDS011;12324;48.146;11.502;2023-05-17T07:01:16;0.60;;;0.60;;
24173;SDS011;12324;48.146;11.502;2023-05-17T07:03:45;0.40;;;0.40;;
24173;SDS011;12324;48.146;11.502;2023-05-17T07:06:12;0.50;;;0.50;;
24173;SDS011;12324;48.146;11.502;2023-05-17T07:08:40;0.50;;;0.50;;
24173;SDS011;12324;48.146;11.502;2023-05-17T07:11:07;0.40;;;0.40;;
24173;SDS011;12324;48.146;11.502;2023-05-17T07:13:34;1.63;;;1.52;;
24173;SDS011;12324;48.146;11.502;2023-05-17T07:16:01;0.40;;;0.40;;
24173;SDS011;12324;48.146;11.502;2023-05-17T07:18:28;0.50;;;0.50;;
24173;SDS011;12324;48.146;11.502;2023-05-17T07:20:56;0.50;;;0.50;;
24173;SDS011;12324;48.146;11.502;2023-05-17T07:23:23;0.40;;;0.40;;
24173;SDS011;12324;48.146;11.502;2023-05-17T07:25:50;0.50;;;0.50;;
24173;SDS011;12324;48.146;11.502;2023-05-17T07:28:17;0.85;;;0.73;;
24173;SDS011;12324;48.146;11.502;2023-05-17T07:30:44;0.80;;;0.80;;
24173;SDS011;12324;48.146;11.502;2023-05-17T07:33:11;0.50;;;0.50;;
24173;SDS011;12324;48.146;11.502;2023-05-17T07:35:39;0.50;;;0.50;;
24173;SDS011;12324;48.146;11.502;2023-05-17T07:38:06;0.77;;;0.70;;
24173;SDS011;12324;48.146;11.502;2023-05-17T07:40:33;0.70;;;0.70;;
24173;SDS011;12324;48.146;11.502;2023-05-17T07:43:00;0.98;;;0.85;;
24173;SDS011;12324;48.146;11.502;2023-05-17T07:45:27;0.60;;;0.60;;
24173;SDS011;12324;48.146;11.502;2023-05-17T07:47:54;0.40;;;0.40;;
24173;SDS011;12324;48.146;11.502;2023-05-17T07:50:22;0.50;;;0.50;;
24173;SDS011;12324;48.146;11.502;2023-05-17T07:52:49;1.38;;;1.25;;
24173;SDS011;12324;48.146;11.502;2023-05-17T07:55:16;2.28;;;1.80;;
24173;SDS011;12324;48.146;11.502;2023-05-17T07:57:44;0.82;;;0.82;;
24173;SDS011;12324;48.146;11.502;2023-05-17T08:00:15;0.70;;;0.70;;
24173;SDS011;12324;48.146;11.502;2023-05-17T08:02:44;0.73;;;0.73;;
24173;SDS011;12324;48.146;11.502;2023-05-17T08:05:11;0.60;;;0.60;;
24173;SDS011;12324;48.146;11.502;2023-05-17T08:07:38;0.50;;;0.50;;
24173;SDS011;12324;48.146;11.502;2023-05-17T08:10:06;0.60;;;0.60;;
24173;SDS011;12324;48.146;11.502;2023-05-17T08:12:33;2.20;;;1.42;;
24173;SDS011;12324;48.146;11.502;2023-05-17T08:15:01;1.27;;;0.80;;
24173;SDS011;12324;48.146;11.502;2023-05-17T08:17:28;0.50;;;0.50;;
24173;SDS011;12324;48.146;11.502;2023-05-17T08:19:55;1.67;;;1.13;;
24173;SDS011;12324;48.146;11.502;2023-05-17T08:22:22;0.40;;;0.40;;
24173;SDS011;12324;48.146;11.502;2023-05-17T08:24:49;0.50;;;0.50;;
24173;SDS011;12324;48.146;11.502;2023-05-17T08:27:16;0.55;;;0.55;;
24173;SDS011;12324;48.146;11.502;2023-05-17T08:29:43;0.60;;;0.60;;
24173;SDS011;12324;48.146;11.502;2023-05-17T08:32:11;0.50;;;0.50;;
24173;SDS011;12324;48.146;11.502;2023-05-17T08:34:38;0.50;;;0.50;;
24173;SDS011;12324;48.146;11.502;2023-05-17T08:37:05;0.70;;;0.70;;
24173;SDS011;12324;48.146;11.502;2023-05-17T08:39:33;0.50;;;0.50;;
24173;SDS011;12324;48.146;11.502;2023-05-17T08:42:00;0.40;;;0.40;;
24173;SDS011;12324;48.146;11.502;2023-05-17T08:44:28;0.88;;;0.88;;
24173;SDS011;12324;48.146;11.502;2023-05-17T08:46:55;0.57;;;0.55;;
24173;SDS011;12324;48.146;11.502;2023-05-17T08:49:24;6.15;;;2.60;;
24173;SDS011;12324;48.146;11.502;2023-05-17T08:51:53;0.60;;;0.60;;
24173;SDS011;12324;48.146;11.502;2023-05-17T08:54:22;1.83;;;1.42;;
24173;SDS011;12324;48.146;11.502;2023-05-17T08:56:49;0.70;;;0.70;;
24173;SDS011;12324;48.146;11.502;2023-05-17T08:59:18;1.13;;;1.02;;
24173;SDS011;12324;48.146;11.502;2023-05-17T09:01:46;1.60;;;0.80;;
24173;SDS011;12324;48.146;11.502;2023-05-17T09:04:17;1.75;;;1.38;;
24173;SDS011;12324;48.146;11.502;2023-05-17T09:06:44;1.23;;;1.13;;
24173;SDS011;12324;48.146;11.502;2023-05-17T09:09:11;0.75;;;0.75;;
24173;SDS011;12324;48.146;11.502;2023-05-17T09:11:39;2.67;;;1.67;;
24173;SDS011;12324;48.146;11.502;2023-05-17T09:14:06;0.40;;;0.40;;
24173;SDS011;12324;48.146;11.502;2023-05-17T09:16:34;0.45;;;0.45;;
24173;SDS011;12324;48.146;11.502;2023-05-17T09:19:03;0.50;;;0.50;;
24173;SDS011;12324;48.146;11.502;2023-05-17T09:21:31;1.90;;;1.23;;
24173;SDS011;12324;48.146;11.502;2023-05-17T09:23:59;1.30;;;0.90;;
24173;SDS011;12324;48.146;11.502;2023-05-17T09:26:39;0.40;;;0.40;;
24173;SDS011;12324;48.146;11.502;2023-05-17T09:29:07;0.68;;;0.68;;
24173;SDS011;12324;48.146;11.502;2023-05-17T09:31:35;1.42;;;1.17;;
24173;SDS011;12324;48.146;11.502;2023-05-17T09:34:02;0.85;;;0.60;;
24173;SDS011;12324;48.146;11.502;2023-05-17T09:36:30;6.50;;;2.25;;
24173;SDS011;12324;48.146;11.502;2023-05-17T09:39:01;0.40;;;0.40;;
24173;SDS011;12324;48.146;11.502;2023-05-17T09:41:31;1.77;;;1.67;;
24173;SDS011;12324;48.146;11.502;2023-05-17T09:43:59;0.43;;;0.43;;
24173;SDS011;12324;48.146;11.502;2023-05-17T09:46:27;0.80;;;0.80;;
24173;SDS011;12324;48.146;11.502;2023-05-17T09:48:54;0.55;;;0.55;;
24173;SDS011;12324;48.146;11.502;2023-05-17T09:51:32;0.50;;;0.50;;
24173;SDS011;12324;48.146;11.502;2023-05-17T09:53:59;2.85;;;0.88;;
24173;SDS011;12324;48.146;11.502;2023-05-17T09:56:27;5.00;;;1.50;;
24173;SDS011;12324;48.146;11.502;2023-05-17T09:58:55;2.83;;;1.38;;
24173;SDS011;12324;48.146;11.502;2023-05-17T10:01:26;6.93;;;2.22;;
24173;SDS011;12324;48.146;11.502;2023-05-17T10:03:54;4.97;;;2.10;;
24173;SDS011;12324;48.146;11.502;2023-05-17T10:06:21;4.60;;;1.73;;
24173;SDS011;12324;48.146;11.502;2023-05-17T10:09:09;5.85;;;1.95;;
24173;SDS011;12324;48.146;11.502;2023-05-17T10:11:39;2.65;;;1.48;;
24173;SDS011;12324;48.146;11.502;2023-05-17T10:14:41;7.68;;;2.05;;
24173;SDS011;12324;48.146;11.502;2023-05-17T10:17:01;3.05;;;1.70;;
24173;SDS011;12324;48.146;11.502;2023-05-17T10:19:28;5.38;;;1.65;;
24173;SDS011;12324;48.146;11.502;2023-05-17T10:21:57;3.33;;;1.35;;
24173;SDS011;12324;48.146;11.502;2023-05-17T10:24:43;2.78;;;1.30;;
24173;SDS011;12324;48.146;11.502;2023-05-17T10:27:14;3.30;;;1.27;;
24173;SDS011;12324;48.146;11.502;2023-05-17T10:29:42;3.30;;;1.67;;
24173;SDS011;12324;48.146;11.502;2023-05-17T10:32:13;2.88;;;1.40;;
24173;SDS011;12324;48.146;11.502;2023-05-17T10:34:42;4.82;;;1.63;;
24173;SDS011;12324;48.146;11.502;2023-05-17T10:37:11;4.30;;;1.70;;
24173;SDS011;12324;48.146;11.502;2023-05-17T10:39:39;2.95;;;1.55;;
24173;SDS011;12324;48.146;11.502;2023-05-17T10:42:11;4.38;;;1.42;;
24173;SDS011;12324;48.146;11.502;2023-05-17T10:44:40;1.90;;;1.42;;
24173;SDS011;12324;48.146;11.502;2023-05-17T10:47:08;4.43;;;1.58;;
24173;SDS011;12324;48.146;11.502;2023-05-17T10:49:37;2.90;;;1.40;;
24173;SDS011;12324;48.146;11.502;2023-05-17T10:52:13;2.25;;;1.55;;
24173;SDS011;12324;48.146;11.502;2023-05-17T10:54:42;4.32;;;1.55;;
24173;SDS011;12324;48.146;11.502;2023-05-17T11:00:09;2.83;;;1.55;;
24173;SDS011;12324;48.146;11.502;2023-05-17T11:02:45;3.83;;;1.60;;
24173;SDS011;12324;48.146;11.502;2023-05-17T11:05:23;2.10;;;1.10;;
24173;SDS011;12324;48.146;11.502;2023-05-17T11:08:07;4.20;;;1.40;;
24173;SDS011;12324;48.146;11.502;2023-05-17T11:10:37;4.00;;;1.80;;
24173;SDS011;12324;48.146;11.502;2023-05-17T11:13:20;5.93;;;2.00;;
24173;SDS011;12324;48.146;11.502;2023-05-17T11:16:01;3.75;;;2.00;;
24173;SDS011;12324;48.146;11.502;2023-05-17T11:18:44;4.57;;;1.20;;
24173;SDS011;12324;48.146;11.502;2023-05-17T11:21:12;6.25;;;1.60;;
24173;SDS011;12324;48.146;11.502;2023-05-17T11:23:41;5.03;;;1.83;;
24173;SDS011;12324;48.146;11.502;2023-05-17T11:26:16;3.17;;;1.48;;
24173;SDS011;12324;48.146;11.502;2023-05-17T11:28:43;3.35;;;1.55;;
24173;SDS011;12324;48.146;11.502;2023-05-17T11:31:11;3.33;;;1.70;;
24173;SDS011;12324;48.146;11.502;2023-05-17T11:33:41;5.47;;;1.52;;
24173;SDS011;12324;48.146;11.502;2023-05-17T11:36:17;4.40;;;1.70;;
24173;SDS011;12324;48.146;11.502;2023-05-17T11:38:48;5.45;;;1.70;;
24173;SDS011;12324;48.146;11.502;2023-05-17T11:41:26;4.85;;;1.63;;
24173;SDS011;12324;48.146;11.502;2023-05-17T11:43:53;3.20;;;1.70;;
24173;SDS011;12324;48.146;11.502;2023-05-17T11:46:21;5.88;;;1.85;;
24173;SDS011;12324;48.146;11.502;2023-05-17T11:48:50;4.78;;;1.70;;
24173;SDS011;12324;48.146;11.502;2023-05-17T11:51:18;2.42;;;1.38;;
24173;SDS011;12324;48.146;11.502;2023-05-17T11:53:50;3.35;;;1.80;;
24173;SDS011;12324;48.146;11.502;2023-05-17T11:56:20;4.30;;;1.63;;
24173;SDS011;12324;48.146;11.502;2023-05-17T11:58:57;5.63;;;1.83;;
24173;SDS011;12324;48.146;11.502;2023-05-17T12:01:25;4.55;;;1.98;;
24173;SDS011;12324;48.146;11.502;2023-05-17T12:03:55;2.47;;;1.58;;
24173;SDS011;12324;48.146;11.502;2023-05-17T12:06:26;5.13;;;1.95;;
24173;SDS011;12324;48.146;11.502;2023-05-17T12:08:54;3.13;;;1.75;;
24173;SDS011;12324;48.146;11.502;2023-05-17T12:11:21;2.75;;;1.80;;
24173;SDS011;12324;48.146;11.502;2023-05-17T12:13:48;4.63;;;2.00;;
24173;SDS011;12324;48.146;11.502;2023-05-17T12:16:19;5.53;;;1.90;;
24173;SDS011;12324;48.146;11.502;2023-05-17T12:18:47;6.20;;;1.75;;
24173;SDS011;12324;48.146;11.502;2023-05-17T12:21:16;5.03;;;1.90;;
24173;SDS011;12324;48.146;11.502;2023-05-17T12:23:44;4.25;;;1.90;;
24173;SDS011;12324;48.146;11.502;2023-05-17T12:26:16;5.35;;;1.85;;
24173;SDS011;12324;48.146;11.502;2023-05-17T12:28:45;5.22;;;2.13;;
24173;SDS011;12324;48.146;11.502;2023-05-17T12:31:13;3.80;;;2.05;;
24173;SDS011;12324;48.146;11.502;2023-05-17T12:33:41;6.93;;;2.33;;
24173;SDS011;12324;48.146;11.502;2023-05-17T12:36:10;4.07;;;2.08;;
24173;SDS011;12324;48.146;11.502;2023-05-17T12:38:38;7.18;;;2.80;;
24173;SDS011;12324;48.146;11.502;2023-05-17T12:41:07;5.40;;;1.95;;
24173;SDS011;12324;48.146;11.502;2023-05-17T12:43:35;4.72;;;2.13;;
24173;SDS011;12324;48.146;11.502;2023-05-17T12:46:06;7.90;;;2.65;;
24173;SDS011;12324;48.146;11.502;2023-05-17T12:48:34;6.82;;;2.90;;
24173;SDS011;12324;48.146;11.502;2023-05-17T12:51:12;6.03;;;2.95;;
24173;SDS011;12324;48.146;11.502;2023-05-17T12:53:40;6.78;;;2.47;;
24173;SDS011;12324;48.146;11.502;2023-05-17T12:56:07;5.03;;;2.03;;
24173;SDS011;12324;48.146;11.502;2023-05-17T12:58:34;10.10;;;3.15;;
24173;SDS011;12324;48.146;11.502;2023-05-17T13:01:02;6.95;;;2.60;;
24173;SDS011;12324;48.146;11.502;2023-05-17T13:03:32;7.28;;;2.70;;
24173;SDS011;12324;48.146;11.502;2023-05-17T13:06:01;4.80;;;2.13;;
24173;SDS011;12324;48.146;11.502;2023-05-17T13:08:28;8.55;;;2.45;;
24173;SDS011;12324;48.146;11.502;2023-05-17T13:11:09;5.30;;;2.42;;
24173;SDS011;12324;48.146;11.502;2023-05-17T13:13:36;4.63;;;2.40;;
24173;SDS011;12324;48.146;11.502;2023-05-17T13:16:03;7.57;;;2.67;;
24173;SDS011;12324;48.146;11.502;2023-05-17T13:18:45;5.30;;;2.72;;
24173;SDS011;12324;48.146;11.502;2023-05-17T13:21:12;5.03;;;2.10;;
24173;SDS011;12324;48.146;11.502;2023-05-17T13:23:44;13.45;;;4.65;;
24173;SDS011;12324;48.146;11.502;2023-05-17T13:26:12;9.15;;;3.85;;
24173;SDS011;12324;48.146;11.502;2023-05-17T13:28:39;6.05;;;2.47;;
24173;SDS011;12324;48.146;11.502;2023-05-17T13:31:06;6.18;;;2.38;;
24173;SDS011;12324;48.146;11.502;2023-05-17T13:33:33;5.22;;;2.38;;
24173;SDS011;12324;48.146;11.502;2023-05-17T13:36:00;5.72;;;2.50;;
24173;SDS011;12324;48.146;11.502;2023-05-17T13:38:28;6.22;;;2.60;;
24173;SDS011;12324;48.146;11.502;2023-05-17T13:40:55;4.57;;;2.30;;
24173;SDS011;12324;48.146;11.502;2023-05-17T13:43:22;7.95;;;2.78;;
24173;SDS011;12324;48.146;11.502;2023-05-17T13:45:49;3.80;;;2.03;;
24173;SDS011;12324;48.146;11.502;2023-05-17T13:48:21;6.10;;;2.85;;
24173;SDS011;12324;48.146;11.502;2023-05-17T13:50:49;7.05;;;2.50;;
24173;SDS011;12324;48.146;11.502;2023-05-17T13:53:17;5.07;;;2.15;;
24173;SDS011;12324;48.146;11.502;2023-05-17T13:55:44;6.28;;;2.25;;
24173;SDS011;12324;48.146;11.502;2023-05-17T13:58:12;5.63;;;2.25;;
24173;SDS011;12324;48.146;11.502;2023-05-17T14:00:40;6.82;;;2.40;;
24173;SDS011;12324;48.146;11.502;2023-05-17T14:03:09;7.57;;;2.33;;
24173;SDS011;12324;48.146;11.502;2023-05-17T14:05:38;8.75;;;2.58;;
24173;SDS011;12324;48.146;11.502;2023-05-17T14:08:05;5.18;;;2.70;;
24173;SDS011;12324;48.146;11.502;2023-05-17T14:10:34;5.53;;;2.28;;
24173;SDS011;12324;48.146;11.502;2023-05-17T14:13:01;5.45;;;2.70;;
24173;SDS011;12324;48.146;11.502;2023-05-17T14:15:28;6.97;;;2.22;;
24173;SDS011;12324;48.146;11.502;2023-05-17T14:17:56;7.43;;;2.78;;
24173;SDS011;12324;48.146;11.502;2023-05-17T14:20:23;5.88;;;2.55;;
24173;SDS011;12324;48.146;11.502;2023-05-17T14:22:49;6.95;;;2.53;;
24173;SDS011;12324;48.146;11.502;2023-05-17T14:25:16;5.65;;;2.22;;
24173;SDS011;12324;48.146;11.502;2023-05-17T14:27:43;6.13;;;2.60;;
24173;SDS011;12324;48.146;11.502;2023-05-17T14:30:10;4.05;;;2.00;;
24173;SDS011;12324;48.146;11.502;2023-05-17T14:32:38;4.82;;;2.33;;
24173;SDS011;12324;48.146;11.502;2023-05-17T14:35:06;4.43;;;2.08;;
24173;SDS011;12324;48.146;11.502;2023-05-17T14:37:33;5.35;;;2.17;;
24173;SDS011;12324;48.146;11.502;2023-05-17T14:40:00;4.90;;;2.42;;
24173;SDS011;12324;48.146;11.502;2023-05-17T14:42:32;7.30;;;2.65;;
24173;SDS011;12324;48.146;11.502;2023-05-17T14:44:59;6.07;;;2.60;;
24173;SDS011;12324;48.146;11.502;2023-05-17T14:47:26;4.88;;;2.45;;